Time,TemperatureF,DewpointF,PressureIn,WindDirection,WindDirectionDegrees,WindSpeedMPH,WindSpeedGustMPH,Humidity,HourlyPrecipIn,Conditions,Clouds,dailyrainin,SoftwareType,DateUTC
2013-03-31 00:04:00,51.8,51.8,30.03,ESE,106,0.0,0.0,98,0.13,,,0.04,WUHU216WMR968SP,2013-03-31 04:04:00,
2013-03-31 00:09:00,51.8,51.8,30.00,ESE,106,0.0,0.0,98,0.13,,,0.04,WUHU216WMR968SP,2013-03-31 04:09:00,
2013-03-31 00:14:00,51.8,51.8,30.00,ESE,106,0.0,0.0,98,0.17,,,0.08,WUHU216WMR968SP,2013-03-31 04:14:00,
2013-03-31 00:19:00,51.6,51.8,30.00,ESE,106,0.0,0.0,98,0.17,,,0.08,WUHU216WMR968SP,2013-03-31 04:19:00,
2013-03-31 00:24:00,51.8,51.8,30.00,ESE,106,0.0,0.0,98,0.21,,,0.12,WUHU216WMR968SP,2013-03-31 04:24:00,
2013-03-31 00:29:00,51.8,51.8,30.00,ESE,106,0.0,0.0,98,0.21,,,0.12,WUHU216WMR968SP,2013-03-31 04:29:00,
2013-03-31 00:34:00,51.8,51.8,30.00,ESE,106,0.0,0.0,98,0.17,,,0.12,WUHU216WMR968SP,2013-03-31 04:34:00,
2013-03-31 00:39:00,51.8,51.8,30.00,ESE,106,0.0,0.0,98,0.17,,,0.12,WUHU216WMR968SP,2013-03-31 04:39:00,
2013-03-31 00:45:00,51.8,51.8,30.00,ESE,106,0.0,0.0,98,0.17,,,0.12,WUHU216WMR968SP,2013-03-31 04:45:00,
2013-03-31 00:50:00,51.8,51.8,30.00,ESE,106,0.0,0.0,98,0.17,,,0.12,WUHU216WMR968SP,2013-03-31 04:50:00,
2013-03-31 00:55:00,51.8,51.8,30.00,ESE,106,0.0,0.0,98,0.21,,,0.17,WUHU216WMR968SP,2013-03-31 04:55:00,
2013-03-31 01:00:00,51.8,51.8,30.00,ESE,106,0.0,0.0,98,0.17,,,0.17,WUHU216WMR968SP,2013-03-31 05:00:00,
2013-03-31 01:05:00,51.8,51.8,30.00,ESE,106,0.0,0.0,98,0.12,,,0.17,WUHU216WMR968SP,2013-03-31 05:05:00,
2013-03-31 01:10:00,51.8,51.8,30.00,ESE,106,0.0,0.0,98,0.12,,,0.17,WUHU216WMR968SP,2013-03-31 05:10:00,
2013-03-31 01:15:00,51.8,51.8,30.00,ESE,106,0.0,0.0,98,0.09,,,0.17,WUHU216WMR968SP,2013-03-31 05:15:00,
2013-03-31 01:20:00,51.8,51.8,29.97,ESE,106,0.0,0.0,98,0.09,,,0.17,WUHU216WMR968SP,2013-03-31 05:20:00,
2013-03-31 01:25:00,51.8,51.8,29.97,ESE,106,0.0,0.0,98,0.09,,,0.21,WUHU216WMR968SP,2013-03-31 05:25:00,
2013-03-31 01:30:00,51.8,51.8,29.97,ESE,106,0.0,0.0,98,0.09,,,0.21,WUHU216WMR968SP,2013-03-31 05:30:00,
2013-03-31 01:35:00,51.8,51.8,29.97,ESE,106,0.0,0.0,98,0.09,,,0.21,WUHU216WMR968SP,2013-03-31 05:35:00,
2013-03-31 01:40:00,51.8,51.8,29.97,ESE,106,0.0,0.0,98,0.09,,,0.21,WUHU216WMR968SP,2013-03-31 05:40:00,
2013-03-31 01:45:00,51.8,51.8,29.97,ESE,106,0.0,0.0,98,0.09,,,0.21,WUHU216WMR968SP,2013-03-31 05:45:00,
2013-03-31 01:50:00,51.8,51.8,29.97,ESE,106,0.0,0.0,98,0.09,,,0.21,WUHU216WMR968SP,2013-03-31 05:50:00,
2013-03-31 01:55:00,51.8,51.8,29.97,ESE,106,0.0,0.0,98,0.04,,,0.21,WUHU216WMR968SP,2013-03-31 05:55:00,
2013-03-31 02:00:00,52.0,51.8,29.97,ESE,106,0.0,0.0,98,0.04,,,0.21,WUHU216WMR968SP,2013-03-31 06:00:00,
2013-03-31 02:05:00,52.0,51.8,29.97,ESE,106,0.0,0.0,98,0.04,,,0.21,WUHU216WMR968SP,2013-03-31 06:05:00,
2013-03-31 02:10:00,52.0,51.8,29.97,ESE,106,0.0,0.0,98,0.04,,,0.21,WUHU216WMR968SP,2013-03-31 06:10:00,
2013-03-31 02:15:00,52.0,51.8,29.97,ESE,106,0.0,0.0,98,0.09,,,0.25,WUHU216WMR968SP,2013-03-31 06:15:00,
2013-03-31 02:20:00,51.8,51.8,29.97,ESE,106,0.0,0.0,98,0.09,,,0.25,WUHU216WMR968SP,2013-03-31 06:20:00,
2013-03-31 02:25:00,52.0,51.8,29.97,ESE,106,0.0,0.0,98,0.04,,,0.25,WUHU216WMR968SP,2013-03-31 06:25:00,
2013-03-31 02:30:00,52.0,51.8,29.97,ESE,106,0.0,0.0,98,0.04,,,0.25,WUHU216WMR968SP,2013-03-31 06:30:00,
2013-03-31 02:35:00,51.8,51.8,29.94,ESE,106,0.0,0.0,98,0.04,,,0.25,WUHU216WMR968SP,2013-03-31 06:35:00,
2013-03-31 02:40:00,51.8,51.8,29.94,ESE,106,0.0,0.0,98,0.04,,,0.25,WUHU216WMR968SP,2013-03-31 06:40:00,
2013-03-31 02:45:00,51.8,51.8,29.94,ESE,106,0.0,0.0,98,0.04,,,0.25,WUHU216WMR968SP,2013-03-31 06:45:00,
2013-03-31 02:50:00,51.8,51.8,29.94,ESE,106,0.0,0.0,98,0.04,,,0.25,WUHU216WMR968SP,2013-03-31 06:50:00,
2013-03-31 02:55:00,51.8,51.8,29.94,ESE,106,0.0,0.0,98,0.04,,,0.25,WUHU216WMR968SP,2013-03-31 06:55:00,
2013-03-31 03:00:00,51.8,51.8,29.94,ESE,106,0.0,0.0,98,0.04,,,0.25,WUHU216WMR968SP,2013-03-31 07:00:00,
2013-03-31 03:05:00,51.8,51.8,29.94,ESE,106,0.0,0.0,98,0.04,,,0.25,WUHU216WMR968SP,2013-03-31 07:05:00,
2013-03-31 03:10:00,51.8,51.8,29.94,ESE,106,0.0,0.0,98,0.09,,,0.30,WUHU216WMR968SP,2013-03-31 07:10:00,
2013-03-31 03:15:00,51.8,51.8,29.94,ESE,106,0.0,0.0,98,0.04,,,0.30,WUHU216WMR968SP,2013-03-31 07:15:00,
2013-03-31 03:20:00,51.8,51.8,29.94,ESE,106,0.0,0.0,98,0.04,,,0.30,WUHU216WMR968SP,2013-03-31 07:20:00,
2013-03-31 03:25:00,51.8,51.8,29.94,ESE,106,0.0,0.0,98,0.04,,,0.30,WUHU216WMR968SP,2013-03-31 07:25:00,
2013-03-31 03:30:00,51.8,51.8,29.94,ESE,106,0.0,0.0,98,0.04,,,0.30,WUHU216WMR968SP,2013-03-31 07:30:00,
2013-03-31 03:35:00,51.6,51.8,29.94,ESE,106,0.0,0.0,98,0.04,,,0.30,WUHU216WMR968SP,2013-03-31 07:35:00,
2013-03-31 03:41:00,51.6,51.8,29.94,ESE,106,0.0,0.0,98,0.04,,,0.30,WUHU216WMR968SP,2013-03-31 07:41:00,
2013-03-31 03:46:00,51.6,51.8,29.94,ESE,106,0.0,0.0,98,0.04,,,0.30,WUHU216WMR968SP,2013-03-31 07:46:00,
2013-03-31 03:51:00,51.6,51.8,29.91,ESE,106,0.0,0.0,98,0.04,,,0.30,WUHU216WMR968SP,2013-03-31 07:51:00,
2013-03-31 03:56:00,51.6,51.8,29.91,ESE,106,0.0,0.0,98,0.04,,,0.30,WUHU216WMR968SP,2013-03-31 07:56:00,
2013-03-31 04:01:00,51.6,51.8,29.91,ESE,106,0.0,0.0,98,0.04,,,0.30,WUHU216WMR968SP,2013-03-31 08:01:00,
2013-03-31 04:06:00,51.6,51.8,29.91,ESE,106,0.0,0.0,98,0.04,,,0.30,WUHU216WMR968SP,2013-03-31 08:06:00,
2013-03-31 04:11:00,51.6,51.8,29.91,ESE,106,0.0,0.0,98,0.00,,,0.30,WUHU216WMR968SP,2013-03-31 08:11:00,
2013-03-31 04:16:00,51.6,51.8,29.91,ESE,106,0.0,0.0,98,0.00,,,0.30,WUHU216WMR968SP,2013-03-31 08:16:00,
2013-03-31 04:21:00,51.6,51.8,29.91,ESE,106,0.0,0.0,98,0.00,,,0.30,WUHU216WMR968SP,2013-03-31 08:21:00,
2013-03-31 04:26:00,51.6,51.8,29.91,ESE,106,0.0,0.0,98,0.00,,,0.30,WUHU216WMR968SP,2013-03-31 08:26:00,
2013-03-31 04:31:00,51.6,51.8,29.91,ESE,106,0.0,0.0,98,0.00,,,0.30,WUHU216WMR968SP,2013-03-31 08:31:00,
2013-03-31 04:36:00,51.8,51.8,29.91,ESE,106,0.0,0.0,98,0.00,,,0.30,WUHU216WMR968SP,2013-03-31 08:36:00,
2013-03-31 04:41:00,52.0,51.8,29.91,ESE,106,0.0,0.0,98,0.00,,,0.30,WUHU216WMR968SP,2013-03-31 08:41:00,
2013-03-31 04:46:00,52.2,51.8,29.91,WNW,295,0.0,0.0,98,0.00,,,0.30,WUHU216WMR968SP,2013-03-31 08:46:00,
2013-03-31 04:51:00,52.5,51.8,29.91,WNW,298,0.0,0.0,98,0.00,,,0.30,WUHU216WMR968SP,2013-03-31 08:51:00,
2013-03-31 04:56:00,52.5,51.8,29.91,WNW,298,0.0,0.0,98,0.00,,,0.30,WUHU216WMR968SP,2013-03-31 08:56:00,
2013-03-31 05:01:00,52.5,51.8,29.91,West,265,0.0,0.0,98,0.00,,,0.30,WUHU216WMR968SP,2013-03-31 09:01:00,
2013-03-31 05:06:00,52.9,53.6,29.91,WSW,239,0.0,0.0,98,0.00,,,0.30,WUHU216WMR968SP,2013-03-31 09:06:00,
2013-03-31 05:12:00,53.4,53.6,29.91,SW,230,0.0,7.4,98,0.00,,,0.30,WUHU216WMR968SP,2013-03-31 09:12:00,
2013-03-31 05:17:00,54.0,53.6,29.91,SW,236,3.3,9.5,98,0.00,,,0.30,WUHU216WMR968SP,2013-03-31 09:17:00,
2013-03-31 05:22:00,54.1,53.6,29.91,South,185,0.0,9.5,98,0.00,,,0.30,WUHU216WMR968SP,2013-03-31 09:22:00,
2013-03-31 05:27:00,54.3,53.6,29.91,SSW,206,0.0,8.7,98,0.00,,,0.30,WUHU216WMR968SP,2013-03-31 09:27:00,
2013-03-31 05:32:00,54.5,55.4,29.91,SSW,193,0.0,8.7,98,0.00,,,0.30,WUHU216WMR968SP,2013-03-31 09:32:00,
2013-03-31 05:37:00,54.5,55.4,29.91,SW,219,0.0,6.0,98,0.00,,,0.30,WUHU216WMR968SP,2013-03-31 09:37:00,
2013-03-31 05:42:00,54.5,55.4,29.91,SW,231,0.0,5.4,98,0.00,,,0.30,WUHU216WMR968SP,2013-03-31 09:42:00,
2013-03-31 05:47:00,54.5,55.4,29.91,WSW,255,0.0,5.4,98,0.00,,,0.30,WUHU216WMR968SP,2013-03-31 09:47:00,
2013-03-31 05:52:00,54.7,55.4,29.91,West,261,0.0,6.0,98,0.00,,,0.30,WUHU216WMR968SP,2013-03-31 09:52:00,
2013-03-31 05:57:00,54.7,55.4,29.91,SW,222,0.0,6.0,98,0.00,,,0.30,WUHU216WMR968SP,2013-03-31 09:57:00,
2013-03-31 06:02:00,54.7,55.4,29.91,WSW,244,0.0,5.4,98,0.00,,,0.30,WUHU216WMR968SP,2013-03-31 10:02:00,
2013-03-31 06:07:00,54.9,55.4,29.91,WSW,240,4.1,7.4,98,0.00,,,0.30,WUHU216WMR968SP,2013-03-31 10:07:00,
2013-03-31 06:12:00,54.9,55.4,29.91,SW,223,0.0,7.4,98,0.00,,,0.30,WUHU216WMR968SP,2013-03-31 10:12:00,
2013-03-31 06:17:00,54.9,55.4,29.91,SW,231,0.0,6.0,98,0.00,,,0.30,WUHU216WMR968SP,2013-03-31 10:17:00,
2013-03-31 06:22:00,54.9,55.4,29.91,SSW,212,0.0,6.0,98,0.00,,,0.30,WUHU216WMR968SP,2013-03-31 10:22:00,
2013-03-31 06:27:00,54.9,55.4,29.91,WSW,246,0.0,6.0,98,0.00,,,0.30,WUHU216WMR968SP,2013-03-31 10:27:00,
2013-03-31 06:32:00,54.9,55.4,29.91,WSW,245,0.0,6.0,98,0.00,,,0.30,WUHU216WMR968SP,2013-03-31 10:32:00,
2013-03-31 06:37:00,54.9,55.4,29.91,SW,215,0.0,4.1,98,0.00,,,0.30,WUHU216WMR968SP,2013-03-31 10:37:00,
2013-03-31 06:42:00,54.9,55.4,29.91,SW,233,0.0,4.1,98,0.00,,,0.30,WUHU216WMR968SP,2013-03-31 10:42:00,
2013-03-31 06:47:00,54.7,55.4,29.91,SSW,194,0.0,3.3,98,0.00,,,0.30,WUHU216WMR968SP,2013-03-31 10:47:00,
2013-03-31 06:52:00,54.9,55.4,29.91,SW,230,0.0,6.0,98,0.00,,,0.30,WUHU216WMR968SP,2013-03-31 10:52:00,
2013-03-31 06:57:00,54.7,55.4,29.91,SW,233,0.0,6.0,98,0.00,,,0.30,WUHU216WMR968SP,2013-03-31 10:57:00,
2013-03-31 07:02:00,54.9,55.4,29.91,SW,235,0.0,5.4,98,0.00,,,0.30,WUHU216WMR968SP,2013-03-31 11:02:00,
2013-03-31 07:07:00,54.9,55.4,29.91,SW,224,0.0,4.1,98,0.00,,,0.30,WUHU216WMR968SP,2013-03-31 11:07:00,
2013-03-31 07:13:00,54.9,55.4,29.91,SW,223,0.0,0.0,98,0.00,,,0.30,WUHU216WMR968SP,2013-03-31 11:13:00,
2013-03-31 07:18:00,54.7,55.4,29.91,SW,222,0.0,0.0,98,0.00,,,0.30,WUHU216WMR968SP,2013-03-31 11:18:00,
2013-03-31 07:23:00,54.7,55.4,29.91,SSE,151,0.0,0.0,98,0.00,,,0.30,WUHU216WMR968SP,2013-03-31 11:23:00,
2013-03-31 07:28:00,54.7,55.4,29.91,SSE,151,0.0,0.0,98,0.00,,,0.30,WUHU216WMR968SP,2013-03-31 11:28:00,
2013-03-31 07:33:00,54.9,55.4,29.91,SE,144,0.0,4.1,98,0.00,,,0.30,WUHU216WMR968SP,2013-03-31 11:33:00,
2013-03-31 07:38:00,54.7,55.4,29.91,SSW,206,0.0,4.1,98,0.00,,,0.30,WUHU216WMR968SP,2013-03-31 11:38:00,
2013-03-31 07:43:00,54.7,55.4,29.91,NNE,13,0.0,4.1,98,0.00,,,0.30,WUHU216WMR968SP,2013-03-31 11:43:00,
2013-03-31 07:48:00,54.7,55.4,29.91,SSW,207,0.0,5.4,98,0.00,,,0.30,WUHU216WMR968SP,2013-03-31 11:48:00,
2013-03-31 07:53:00,54.9,55.4,29.91,SSW,203,0.0,5.4,98,0.00,,,0.30,WUHU216WMR968SP,2013-03-31 11:53:00,
2013-03-31 07:58:00,54.9,55.4,29.91,SW,225,0.0,4.1,98,0.00,,,0.30,WUHU216WMR968SP,2013-03-31 11:58:00,
2013-03-31 08:03:00,54.9,55.4,29.91,SW,225,0.0,4.1,98,0.00,,,0.30,WUHU216WMR968SP,2013-03-31 12:03:00,
2013-03-31 08:08:00,55.0,55.4,29.94,SW,222,0.0,3.3,98,0.00,,,0.30,WUHU216WMR968SP,2013-03-31 12:08:00,
2013-03-31 08:13:00,55.0,55.4,29.94,SW,221,0.0,3.3,98,0.00,,,0.30,WUHU216WMR968SP,2013-03-31 12:13:00,
2013-03-31 08:18:00,55.0,55.4,29.94,WSW,244,0.0,4.6,98,0.00,,,0.30,WUHU216WMR968SP,2013-03-31 12:18:00,
2013-03-31 08:23:00,55.0,55.4,29.94,SSW,212,0.0,4.6,98,0.00,,,0.30,WUHU216WMR968SP,2013-03-31 12:23:00,
2013-03-31 08:28:00,55.0,55.4,29.94,SW,226,0.0,4.1,98,0.00,,,0.30,WUHU216WMR968SP,2013-03-31 12:28:00,
2013-03-31 08:33:00,55.0,55.4,29.94,WNW,288,0.0,4.1,98,0.00,,,0.30,WUHU216WMR968SP,2013-03-31 12:33:00,
2013-03-31 08:38:00,55.2,55.4,29.94,South,191,0.0,4.1,98,0.00,,,0.30,WUHU216WMR968SP,2013-03-31 12:38:00,
2013-03-31 08:43:00,55.4,55.4,29.94,SW,218,0.0,4.6,98,0.00,,,0.30,WUHU216WMR968SP,2013-03-31 12:43:00,
2013-03-31 08:48:00,55.6,55.4,29.94,SW,226,0.0,4.6,98,0.00,,,0.30,WUHU216WMR968SP,2013-03-31 12:48:00,
2013-03-31 08:53:00,55.6,55.4,29.94,South,183,0.0,5.4,98,0.00,,,0.30,WUHU216WMR968SP,2013-03-31 12:53:00,
2013-03-31 08:58:00,55.9,55.4,29.94,South,180,0.0,8.7,98,0.00,,,0.30,WUHU216WMR968SP,2013-03-31 12:58:00,
2013-03-31 09:03:00,56.1,55.4,29.94,WSW,250,0.0,8.7,98,0.00,,,0.30,WUHU216WMR968SP,2013-03-31 13:03:00,
2013-03-31 09:08:00,56.3,57.2,29.94,WSW,237,0.0,6.0,98,0.00,,,0.30,WUHU216WMR968SP,2013-03-31 13:08:00,
2013-03-31 09:13:00,56.5,57.2,29.94,SSE,165,0.0,6.8,98,0.00,,,0.30,WUHU216WMR968SP,2013-03-31 13:13:00,
2013-03-31 09:18:00,56.7,57.2,29.94,SSE,153,0.0,6.8,98,0.00,,,0.30,WUHU216WMR968SP,2013-03-31 13:18:00,
2013-03-31 09:24:00,56.8,57.2,29.94,South,191,3.3,13.8,98,0.00,,,0.30,WUHU216WMR968SP,2013-03-31 13:24:00,
2013-03-31 09:29:00,56.8,57.2,29.94,SW,225,0.0,13.8,98,0.00,,,0.30,WUHU216WMR968SP,2013-03-31 13:29:00,
2013-03-31 09:34:00,57.0,57.2,29.94,South,191,0.0,5.4,98,0.00,,,0.30,WUHU216WMR968SP,2013-03-31 13:34:00,
2013-03-31 09:39:00,57.2,57.2,29.94,South,173,0.0,5.4,98,0.00,,,0.30,WUHU216WMR968SP,2013-03-31 13:39:00,
2013-03-31 09:44:00,57.4,57.2,29.94,SW,235,0.0,5.4,98,0.00,,,0.30,WUHU216WMR968SP,2013-03-31 13:44:00,
2013-03-31 09:49:00,57.6,57.2,29.94,SW,236,0.0,7.4,98,0.00,,,0.30,WUHU216WMR968SP,2013-03-31 13:49:00,
2013-03-31 09:54:00,57.7,57.2,29.94,WSW,240,0.0,7.4,98,0.00,,,0.30,WUHU216WMR968SP,2013-03-31 13:54:00,
2013-03-31 09:59:00,57.9,57.2,29.94,SE,145,0.0,6.0,97,0.00,,,0.30,WUHU216WMR968SP,2013-03-31 13:59:00,
2013-03-31 10:04:00,57.9,57.2,29.94,SW,230,0.0,8.1,97,0.00,,,0.30,WUHU216WMR968SP,2013-03-31 14:04:00,
2013-03-31 10:09:00,58.1,57.2,29.94,SSE,166,0.0,8.1,96,0.00,,,0.30,WUHU216WMR968SP,2013-03-31 14:09:00,
2013-03-31 10:14:00,58.1,57.2,29.94,WSW,242,0.0,6.0,95,0.00,,,0.30,WUHU216WMR968SP,2013-03-31 14:14:00,
2013-03-31 10:19:00,57.9,55.4,29.94,NW,307,0.0,6.0,95,0.00,,,0.30,WUHU216WMR968SP,2013-03-31 14:19:00,
2013-03-31 10:24:00,58.1,57.2,29.94,WSW,252,0.0,6.0,94,0.00,,,0.30,WUHU216WMR968SP,2013-03-31 14:24:00,
2013-03-31 10:29:00,58.1,57.2,29.94,SW,223,0.0,6.0,94,0.00,,,0.30,WUHU216WMR968SP,2013-03-31 14:29:00,
2013-03-31 10:34:00,57.9,55.4,29.94,SSW,213,0.0,6.0,94,0.00,,,0.30,WUHU216WMR968SP,2013-03-31 14:34:00,
2013-03-31 10:39:00,58.1,57.2,29.94,SSW,193,0.0,8.1,93,0.00,,,0.30,WUHU216WMR968SP,2013-03-31 14:39:00,
2013-03-31 10:44:00,58.1,57.2,29.94,SW,219,0.0,9.5,93,0.00,,,0.30,WUHU216WMR968SP,2013-03-31 14:44:00,
2013-03-31 10:49:00,58.3,57.2,29.94,SSE,162,0.0,9.5,93,0.00,,,0.30,WUHU216WMR968SP,2013-03-31 14:49:00,
2013-03-31 10:54:00,58.5,57.2,29.94,SSW,207,0.0,6.0,93,0.00,,,0.30,WUHU216WMR968SP,2013-03-31 14:54:00,
2013-03-31 10:59:00,58.8,57.2,29.94,ESE,102,0.0,6.0,93,0.00,,,0.30,WUHU216WMR968SP,2013-03-31 14:59:00,
2013-03-31 11:04:00,59.2,57.2,29.94,SW,226,0.0,6.0,92,0.00,,,0.30,WUHU216WMR968SP,2013-03-31 15:04:00,
2013-03-31 11:09:00,59.4,57.2,29.94,SW,223,0.0,5.4,92,0.00,,,0.30,WUHU216WMR968SP,2013-03-31 15:09:00,
2013-03-31 11:14:00,59.5,57.2,29.94,South,171,0.0,6.8,91,0.00,,,0.30,WUHU216WMR968SP,2013-03-31 15:14:00,
2013-03-31 11:19:00,59.7,55.4,29.94,SW,216,4.1,8.1,90,0.00,,,0.30,WUHU216WMR968SP,2013-03-31 15:19:00,
2013-03-31 11:24:00,59.5,55.4,29.94,SW,226,6.8,9.5,89,0.00,,,0.30,WUHU216WMR968SP,2013-03-31 15:24:00,
2013-03-31 11:29:00,59.4,55.4,29.94,WSW,248,0.0,9.5,88,0.00,,,0.30,WUHU216WMR968SP,2013-03-31 15:29:00,
2013-03-31 11:35:00,59.4,55.4,29.94,SW,221,4.6,8.1,88,0.00,,,0.30,WUHU216WMR968SP,2013-03-31 15:35:00,
2013-03-31 11:40:00,59.4,55.4,29.94,SW,222,5.4,8.1,88,0.00,,,0.30,WUHU216WMR968SP,2013-03-31 15:40:00,
2013-03-31 11:45:00,59.4,55.4,29.94,WSW,249,6.8,9.5,88,0.00,,,0.30,WUHU216WMR968SP,2013-03-31 15:45:00,
2013-03-31 11:50:00,59.5,55.4,29.94,South,186,4.6,9.5,87,0.00,,,0.30,WUHU216WMR968SP,2013-03-31 15:50:00,
2013-03-31 11:55:00,59.9,57.2,29.94,SSW,210,6.0,7.4,87,0.00,,,0.30,WUHU216WMR968SP,2013-03-31 15:55:00,
2013-03-31 12:00:00,59.9,57.2,29.94,SSW,211,4.6,8.7,86,0.00,,,0.30,WUHU216WMR968SP,2013-03-31 16:00:00,
2013-03-31 12:05:00,59.9,57.2,29.94,SW,228,3.3,8.7,86,0.00,,,0.30,WUHU216WMR968SP,2013-03-31 16:05:00,
2013-03-31 12:10:00,59.7,55.4,29.94,WNW,288,4.6,8.7,86,0.00,,,0.30,WUHU216WMR968SP,2013-03-31 16:10:00,
2013-03-31 12:15:00,59.7,55.4,29.94,SSW,208,4.1,8.7,85,0.00,,,0.30,WUHU216WMR968SP,2013-03-31 16:15:00,
2013-03-31 12:20:00,59.7,55.4,29.94,SW,216,5.4,8.1,85,0.00,,,0.30,WUHU216WMR968SP,2013-03-31 16:20:00,
2013-03-31 12:25:00,59.7,53.6,29.94,SW,219,4.6,8.7,84,0.00,,,0.30,WUHU216WMR968SP,2013-03-31 16:25:00,
2013-03-31 12:30:00,59.7,53.6,29.94,SSW,203,4.1,8.7,84,0.00,,,0.30,WUHU216WMR968SP,2013-03-31 16:30:00,
2013-03-31 12:35:00,59.9,55.4,29.94,WSW,240,3.3,8.1,84,0.00,,,0.30,WUHU216WMR968SP,2013-03-31 16:35:00,
2013-03-31 12:40:00,60.1,55.4,29.94,NW,305,4.1,8.1,84,0.00,,,0.30,WUHU216WMR968SP,2013-03-31 16:40:00,
2013-03-31 12:45:00,60.4,55.4,29.94,WSW,248,6.8,9.5,83,0.00,,,0.30,WUHU216WMR968SP,2013-03-31 16:45:00,
2013-03-31 12:50:00,60.8,55.4,29.94,West,270,5.4,9.5,82,0.00,,,0.30,WUHU216WMR968SP,2013-03-31 16:50:00,
2013-03-31 12:55:00,61.0,55.4,29.94,SW,236,4.1,9.5,81,0.00,,,0.30,WUHU216WMR968SP,2013-03-31 16:55:00,
2013-03-31 13:00:00,61.0,55.4,29.94,NW,317,4.6,8.7,80,0.00,,,0.30,WUHU216WMR968SP,2013-03-31 17:00:00,
2013-03-31 13:05:00,61.0,55.4,29.94,WNW,297,0.0,8.7,80,0.00,,,0.30,WUHU216WMR968SP,2013-03-31 17:05:00,
2013-03-31 13:10:00,61.3,55.4,29.94,WNW,301,0.0,8.7,80,0.00,,,0.30,WUHU216WMR968SP,2013-03-31 17:10:00,
2013-03-31 13:15:00,61.7,55.4,29.94,WSW,250,0.0,6.0,79,0.00,,,0.30,WUHU216WMR968SP,2013-03-31 17:15:00,
2013-03-31 13:20:00,62.4,55.4,29.91,West,281,4.1,5.4,79,0.00,,,0.30,WUHU216WMR968SP,2013-03-31 17:20:00,
2013-03-31 13:25:00,63.5,57.2,29.91,WNW,293,0.0,6.0,79,0.00,,,0.30,WUHU216WMR968SP,2013-03-31 17:25:00,
2013-03-31 13:30:00,63.0,55.4,29.91,SW,214,3.3,6.0,77,0.00,,,0.30,WUHU216WMR968SP,2013-03-31 17:30:00,
2013-03-31 13:35:00,62.4,55.4,29.91,SW,223,0.0,6.0,77,0.00,,,0.30,WUHU216WMR968SP,2013-03-31 17:35:00,
2013-03-31 13:40:00,62.2,55.4,29.91,WSW,248,0.0,5.4,77,0.00,,,0.30,WUHU216WMR968SP,2013-03-31 17:40:00,
2013-03-31 13:45:00,62.6,55.4,29.91,WNW,299,0.0,6.0,77,0.00,,,0.30,WUHU216WMR968SP,2013-03-31 17:45:00,
2013-03-31 13:50:00,63.3,55.4,29.91,WNW,303,3.3,6.0,77,0.00,,,0.30,WUHU216WMR968SP,2013-03-31 17:50:00,
2013-03-31 13:56:00,63.7,57.2,29.91,WSW,244,3.3,7.4,75,0.00,,,0.30,WUHU216WMR968SP,2013-03-31 17:56:00,
2013-03-31 14:01:00,63.3,55.4,29.91,West,261,4.1,7.4,75,0.00,,,0.30,WUHU216WMR968SP,2013-03-31 18:01:00,
2013-03-31 14:06:00,63.1,55.4,29.91,West,270,0.0,7.4,75,0.00,,,0.30,WUHU216WMR968SP,2013-03-31 18:06:00,
2013-03-31 14:11:00,62.6,53.6,29.91,SW,232,0.0,12.2,74,0.00,,,0.30,WUHU216WMR968SP,2013-03-31 18:11:00,
2013-03-31 14:16:00,61.9,55.4,29.91,SW,232,0.0,12.2,76,0.00,,,0.30,WUHU216WMR968SP,2013-03-31 18:16:00,
2013-03-31 14:21:00,61.7,55.4,29.91,SW,224,6.0,9.5,76,0.00,,,0.30,WUHU216WMR968SP,2013-03-31 18:21:00,
2013-03-31 14:26:00,61.2,53.6,29.91,SSW,212,4.1,9.5,78,0.00,,,0.30,WUHU216WMR968SP,2013-03-31 18:26:00,
2013-03-31 14:31:00,60.6,55.4,29.91,SSW,192,0.0,7.4,81,0.04,,,0.34,WUHU216WMR968SP,2013-03-31 18:31:00,
2013-03-31 14:36:00,60.3,55.4,29.91,SW,220,3.3,7.4,83,0.04,,,0.34,WUHU216WMR968SP,2013-03-31 18:36:00,
2013-03-31 14:42:00,59.7,53.6,29.91,SSE,157,4.1,8.7,84,0.04,,,0.34,WUHU216WMR968SP,2013-03-31 18:42:00,
2013-03-31 14:47:00,59.5,55.4,29.91,WSW,238,0.0,8.7,86,0.04,,,0.34,WUHU216WMR968SP,2013-03-31 18:47:00,
2013-03-31 14:52:00,59.4,55.4,29.91,WNW,292,0.0,6.0,87,0.04,,,0.34,WUHU216WMR968SP,2013-03-31 18:52:00,
2013-03-31 14:57:00,59.4,55.4,29.91,SW,227,0.0,6.0,89,0.04,,,0.34,WUHU216WMR968SP,2013-03-31 18:57:00,
2013-03-31 15:02:00,59.4,55.4,29.91,SW,226,0.0,4.6,89,0.04,,,0.34,WUHU216WMR968SP,2013-03-31 19:02:00,
2013-03-31 15:07:00,59.4,55.4,29.91,SW,230,0.0,5.4,90,0.04,,,0.34,WUHU216WMR968SP,2013-03-31 19:07:00,
2013-03-31 15:12:00,59.4,57.2,29.91,West,273,0.0,5.4,91,0.04,,,0.34,WUHU216WMR968SP,2013-03-31 19:12:00,
2013-03-31 15:17:00,59.5,57.2,29.91,West,273,0.0,5.4,91,0.04,,,0.34,WUHU216WMR968SP,2013-03-31 19:17:00,
2013-03-31 15:22:00,59.9,59.0,29.91,WSW,250,0.0,0.0,92,0.04,,,0.34,WUHU216WMR968SP,2013-03-31 19:22:00,
2013-03-31 15:27:00,59.9,59.0,29.91,SW,216,0.0,5.4,92,0.04,,,0.34,WUHU216WMR968SP,2013-03-31 19:27:00,
2013-03-31 15:32:00,60.1,59.0,29.91,WSW,242,0.0,5.4,92,0.00,,,0.34,WUHU216WMR968SP,2013-03-31 19:32:00,
2013-03-31 15:37:00,60.4,59.0,29.91,WSW,246,0.0,4.1,92,0.00,,,0.34,WUHU216WMR968SP,2013-03-31 19:37:00,
2013-03-31 15:42:00,61.0,59.0,29.91,NW,304,0.0,4.1,92,0.00,,,0.34,WUHU216WMR968SP,2013-03-31 19:42:00,
2013-03-31 15:47:00,61.5,59.0,29.91,WNW,286,0.0,3.3,91,0.00,,,0.34,WUHU216WMR968SP,2013-03-31 19:47:00,
2013-03-31 15:52:00,61.9,59.0,29.88,West,274,4.1,5.4,90,0.00,,,0.34,WUHU216WMR968SP,2013-03-31 19:52:00,
2013-03-31 15:57:00,62.2,59.0,29.88,WSW,254,4.1,6.0,89,0.00,,,0.34,WUHU216WMR968SP,2013-03-31 19:57:00,
2013-03-31 16:02:00,62.4,59.0,29.88,WNW,288,0.0,7.4,88,0.00,,,0.34,WUHU216WMR968SP,2013-03-31 20:02:00,
2013-03-31 16:08:00,62.2,59.0,29.88,WSW,248,0.0,7.4,87,0.00,,,0.34,WUHU216WMR968SP,2013-03-31 20:08:00,
2013-03-31 16:13:00,61.7,59.0,29.88,SSW,207,0.0,7.4,86,0.00,,,0.34,WUHU216WMR968SP,2013-03-31 20:13:00,
2013-03-31 16:18:00,61.3,57.2,29.88,SSW,210,0.0,4.6,86,0.00,,,0.34,WUHU216WMR968SP,2013-03-31 20:18:00,
2013-03-31 16:23:00,60.6,57.2,29.88,SW,227,0.0,5.4,87,0.00,,,0.34,WUHU216WMR968SP,2013-03-31 20:23:00,
2013-03-31 16:28:00,60.4,57.2,29.88,SW,221,0.0,6.0,89,0.00,,,0.34,WUHU216WMR968SP,2013-03-31 20:28:00,
2013-03-31 16:33:00,60.3,57.2,29.88,South,179,0.0,6.0,90,0.00,,,0.34,WUHU216WMR968SP,2013-03-31 20:33:00,
2013-03-31 16:38:00,60.4,59.0,29.88,South,183,0.0,6.0,91,0.00,,,0.34,WUHU216WMR968SP,2013-03-31 20:38:00,
2013-03-31 16:43:00,60.6,59.0,29.88,SW,216,4.1,9.5,91,0.00,,,0.34,WUHU216WMR968SP,2013-03-31 20:43:00,
2013-03-31 16:48:00,60.6,59.0,29.88,SSW,203,0.0,9.5,91,0.00,,,0.34,WUHU216WMR968SP,2013-03-31 20:48:00,
2013-03-31 16:53:00,60.6,59.0,29.88,SW,229,0.0,4.6,91,0.00,,,0.34,WUHU216WMR968SP,2013-03-31 20:53:00,
2013-03-31 16:58:00,60.6,59.0,29.88,SW,232,0.0,4.6,92,0.00,,,0.34,WUHU216WMR968SP,2013-03-31 20:58:00,
2013-03-31 17:03:00,60.6,59.0,29.88,WSW,242,0.0,0.0,91,0.00,,,0.34,WUHU216WMR968SP,2013-03-31 21:03:00,
2013-03-31 17:08:00,60.4,59.0,29.88,SW,230,0.0,0.0,92,0.00,,,0.34,WUHU216WMR968SP,2013-03-31 21:08:00,
2013-03-31 17:13:00,60.6,59.0,29.88,SW,230,0.0,0.0,92,0.00,,,0.34,WUHU216WMR968SP,2013-03-31 21:13:00,
2013-03-31 17:18:00,60.6,59.0,29.88,SW,230,0.0,0.0,92,0.00,,,0.34,WUHU216WMR968SP,2013-03-31 21:18:00,
2013-03-31 17:23:00,60.6,59.0,29.88,SW,230,0.0,0.0,92,0.00,,,0.34,WUHU216WMR968SP,2013-03-31 21:23:00,
2013-03-31 17:28:00,60.4,59.0,29.88,SW,230,0.0,0.0,92,0.00,,,0.34,WUHU216WMR968SP,2013-03-31 21:28:00,
2013-03-31 17:33:00,60.4,59.0,29.88,SW,230,0.0,0.0,92,0.00,,,0.34,WUHU216WMR968SP,2013-03-31 21:33:00,
2013-03-31 17:38:00,60.1,59.0,29.88,SW,230,0.0,0.0,93,0.00,,,0.34,WUHU216WMR968SP,2013-03-31 21:38:00,
2013-03-31 17:43:00,59.7,57.2,29.88,WSW,246,0.0,0.0,93,0.00,,,0.34,WUHU216WMR968SP,2013-03-31 21:43:00,
2013-03-31 17:48:00,59.4,57.2,29.88,WSW,246,0.0,0.0,93,0.04,,,0.39,WUHU216WMR968SP,2013-03-31 21:48:00,
2013-03-31 17:53:00,59.0,57.2,29.88,WSW,246,0.0,0.0,93,0.04,,,0.39,WUHU216WMR968SP,2013-03-31 21:53:00,
2013-03-31 17:58:00,59.0,57.2,29.88,WSW,246,0.0,0.0,94,0.04,,,0.39,WUHU216WMR968SP,2013-03-31 21:58:00,
2013-03-31 18:03:00,58.8,57.2,29.88,WSW,246,0.0,0.0,95,0.04,,,0.39,WUHU216WMR968SP,2013-03-31 22:03:00,
2013-03-31 18:09:00,58.8,57.2,29.88,WSW,246,0.0,0.0,95,0.04,,,0.39,WUHU216WMR968SP,2013-03-31 22:09:00,
2013-03-31 18:14:00,58.8,57.2,29.88,WSW,246,0.0,0.0,96,0.04,,,0.39,WUHU216WMR968SP,2013-03-31 22:14:00,
2013-03-31 18:19:00,58.8,57.2,29.88,WSW,246,0.0,0.0,96,0.04,,,0.39,WUHU216WMR968SP,2013-03-31 22:19:00,
2013-03-31 18:24:00,58.8,59.0,29.88,WSW,246,0.0,0.0,97,0.04,,,0.39,WUHU216WMR968SP,2013-03-31 22:24:00,
2013-03-31 18:29:00,58.8,59.0,29.88,WSW,246,0.0,0.0,97,0.04,,,0.39,WUHU216WMR968SP,2013-03-31 22:29:00,
2013-03-31 18:34:00,59.0,59.0,29.88,WSW,246,0.0,0.0,97,0.04,,,0.39,WUHU216WMR968SP,2013-03-31 22:34:00,
2013-03-31 18:39:00,59.0,59.0,29.88,WSW,246,0.0,0.0,97,0.04,,,0.39,WUHU216WMR968SP,2013-03-31 22:39:00,
2013-03-31 18:44:00,59.2,59.0,29.88,WSW,246,0.0,0.0,98,0.04,,,0.39,WUHU216WMR968SP,2013-03-31 22:44:00,
2013-03-31 18:49:00,59.2,59.0,29.88,WSW,246,0.0,0.0,98,0.00,,,0.39,WUHU216WMR968SP,2013-03-31 22:49:00,
2013-03-31 18:54:00,59.2,59.0,29.88,WSW,246,0.0,0.0,98,0.00,,,0.39,WUHU216WMR968SP,2013-03-31 22:54:00,
2013-03-31 18:59:00,59.2,59.0,29.88,WSW,246,0.0,0.0,98,0.00,,,0.39,WUHU216WMR968SP,2013-03-31 22:59:00,
2013-03-31 19:04:00,59.2,59.0,29.88,WSW,246,0.0,0.0,98,0.00,,,0.39,WUHU216WMR968SP,2013-03-31 23:04:00,
2013-03-31 19:09:00,59.2,59.0,29.88,WSW,246,0.0,0.0,98,0.00,,,0.39,WUHU216WMR968SP,2013-03-31 23:09:00,
2013-03-31 19:14:00,59.2,59.0,29.88,WSW,246,0.0,0.0,98,0.00,,,0.39,WUHU216WMR968SP,2013-03-31 23:14:00,
2013-03-31 19:19:00,59.0,59.0,29.88,WSW,246,0.0,0.0,98,0.00,,,0.39,WUHU216WMR968SP,2013-03-31 23:19:00,
2013-03-31 19:24:00,58.8,59.0,29.88,WSW,246,0.0,0.0,98,0.00,,,0.39,WUHU216WMR968SP,2013-03-31 23:24:00,
2013-03-31 19:29:00,58.6,59.0,29.88,WSW,246,0.0,0.0,98,0.00,,,0.39,WUHU216WMR968SP,2013-03-31 23:29:00,
2013-03-31 19:34:00,58.5,59.0,29.88,WSW,246,0.0,0.0,98,0.00,,,0.39,WUHU216WMR968SP,2013-03-31 23:34:00,
2013-03-31 19:39:00,58.5,59.0,29.88,WSW,246,0.0,0.0,98,0.00,,,0.39,WUHU216WMR968SP,2013-03-31 23:39:00,
2013-03-31 19:44:00,58.1,59.0,29.88,WSW,246,0.0,0.0,98,0.00,,,0.39,WUHU216WMR968SP,2013-03-31 23:44:00,
2013-03-31 19:49:00,57.9,57.2,29.88,WSW,246,0.0,0.0,98,0.00,,,0.39,WUHU216WMR968SP,2013-03-31 23:49:00,
2013-03-31 19:54:00,57.6,57.2,29.88,North,0,0.0,0.0,98,0.00,,,0.39,WUHU216WMR968SP,2013-03-31 23:54:00,
2013-03-31 19:59:00,57.2,57.2,29.88,NE,34,0.0,0.0,98,0.00,,,0.39,WUHU216WMR968SP,2013-03-31 23:59:00,
2013-03-31 20:04:00,57.0,57.2,29.88,NE,34,0.0,0.0,98,0.00,,,0.39,WUHU216WMR968SP,2013-04-01 00:04:00,
2013-03-31 20:09:00,56.7,57.2,29.88,NE,34,0.0,0.0,98,0.00,,,0.39,WUHU216WMR968SP,2013-04-01 00:09:00,
2013-03-31 20:14:00,56.7,57.2,29.88,NE,34,0.0,0.0,98,0.00,,,0.39,WUHU216WMR968SP,2013-04-01 00:14:00,
2013-03-31 20:19:00,56.5,57.2,29.88,NE,34,0.0,0.0,98,0.00,,,0.39,WUHU216WMR968SP,2013-04-01 00:19:00,
2013-03-31 20:24:00,56.3,57.2,29.88,NE,34,0.0,0.0,98,0.00,,,0.39,WUHU216WMR968SP,2013-04-01 00:24:00,
2013-03-31 20:29:00,56.3,57.2,29.88,NE,34,0.0,0.0,98,0.00,,,0.39,WUHU216WMR968SP,2013-04-01 00:29:00,
2013-03-31 20:34:00,56.1,55.4,29.88,NE,34,0.0,0.0,98,0.00,,,0.39,WUHU216WMR968SP,2013-04-01 00:34:00,
2013-03-31 20:40:00,56.1,55.4,29.88,NE,34,0.0,0.0,98,0.00,,,0.39,WUHU216WMR968SP,2013-04-01 00:40:00,
2013-03-31 20:45:00,55.9,55.4,29.88,NE,34,0.0,0.0,98,0.00,,,0.39,WUHU216WMR968SP,2013-04-01 00:45:00,
2013-03-31 20:50:00,55.9,55.4,29.91,NE,34,0.0,0.0,98,0.00,,,0.39,WUHU216WMR968SP,2013-04-01 00:50:00,
2013-03-31 20:55:00,55.8,55.4,29.91,NE,34,0.0,0.0,98,0.04,,,0.43,WUHU216WMR968SP,2013-04-01 00:55:00,
2013-03-31 21:00:00,55.6,55.4,29.91,NE,34,0.0,0.0,98,0.04,,,0.43,WUHU216WMR968SP,2013-04-01 01:00:00,
2013-03-31 21:05:00,55.6,55.4,29.91,NE,34,0.0,0.0,98,0.04,,,0.43,WUHU216WMR968SP,2013-04-01 01:05:00,
2013-03-31 21:10:00,55.4,55.4,29.91,NE,34,0.0,0.0,98,0.04,,,0.43,WUHU216WMR968SP,2013-04-01 01:10:00,
2013-03-31 21:15:00,55.4,55.4,29.91,NE,34,0.0,0.0,98,0.04,,,0.43,WUHU216WMR968SP,2013-04-01 01:15:00,
2013-03-31 21:20:00,55.2,55.4,29.91,NE,34,0.0,0.0,98,0.04,,,0.43,WUHU216WMR968SP,2013-04-01 01:20:00,
2013-03-31 21:25:00,55.0,55.4,29.91,NE,34,0.0,0.0,98,0.04,,,0.43,WUHU216WMR968SP,2013-04-01 01:25:00,
2013-03-31 21:30:00,55.0,55.4,29.91,NE,34,0.0,0.0,98,0.04,,,0.43,WUHU216WMR968SP,2013-04-01 01:30:00,
2013-03-31 21:35:00,54.9,55.4,29.88,NE,34,0.0,0.0,98,0.04,,,0.43,WUHU216WMR968SP,2013-04-01 01:35:00,
2013-03-31 21:40:00,54.9,55.4,29.88,NE,34,0.0,0.0,98,0.04,,,0.43,WUHU216WMR968SP,2013-04-01 01:40:00,
2013-03-31 21:45:00,54.9,55.4,29.88,NE,34,0.0,0.0,98,0.04,,,0.43,WUHU216WMR968SP,2013-04-01 01:45:00,
2013-03-31 21:50:00,54.7,55.4,29.91,ENE,57,0.0,0.0,98,0.04,,,0.43,WUHU216WMR968SP,2013-04-01 01:50:00,
2013-03-31 21:55:00,54.7,55.4,29.91,ENE,57,0.0,0.0,98,0.00,,,0.43,WUHU216WMR968SP,2013-04-01 01:55:00,
2013-03-31 22:00:00,54.5,55.4,29.91,ENE,57,0.0,0.0,98,0.00,,,0.43,WUHU216WMR968SP,2013-04-01 02:00:00,
2013-03-31 22:05:00,54.5,55.4,29.91,ENE,57,0.0,0.0,98,0.00,,,0.43,WUHU216WMR968SP,2013-04-01 02:05:00,
2013-03-31 22:10:00,54.5,55.4,29.91,ENE,57,0.0,0.0,98,0.00,,,0.43,WUHU216WMR968SP,2013-04-01 02:10:00,
2013-03-31 22:15:00,54.3,53.6,29.91,ENE,57,0.0,0.0,98,0.00,,,0.43,WUHU216WMR968SP,2013-04-01 02:15:00,
2013-03-31 22:20:00,54.1,53.6,29.91,ENE,57,0.0,0.0,98,0.00,,,0.43,WUHU216WMR968SP,2013-04-01 02:20:00,
2013-03-31 22:25:00,54.0,53.6,29.91,ENE,57,0.0,0.0,98,0.00,,,0.43,WUHU216WMR968SP,2013-04-01 02:25:00,
2013-03-31 22:30:00,54.0,53.6,29.91,ENE,57,0.0,0.0,98,0.00,,,0.43,WUHU216WMR968SP,2013-04-01 02:30:00,
2013-03-31 22:35:00,53.6,53.6,29.91,ENE,57,0.0,0.0,98,0.00,,,0.43,WUHU216WMR968SP,2013-04-01 02:35:00,
2013-03-31 22:40:00,53.4,53.6,29.91,ENE,57,0.0,0.0,98,0.00,,,0.43,WUHU216WMR968SP,2013-04-01 02:40:00,
2013-03-31 22:45:00,53.1,53.6,29.91,ENE,57,0.0,0.0,98,0.00,,,0.43,WUHU216WMR968SP,2013-04-01 02:45:00,
2013-03-31 22:50:00,52.7,53.6,29.91,ENE,57,0.0,0.0,98,0.00,,,0.43,WUHU216WMR968SP,2013-04-01 02:50:00,
2013-03-31 22:55:00,52.2,51.8,29.91,ENE,57,0.0,0.0,98,0.00,,,0.43,WUHU216WMR968SP,2013-04-01 02:55:00,
2013-03-31 23:00:00,52.2,51.8,29.91,ENE,57,0.0,0.0,98,0.00,,,0.43,WUHU216WMR968SP,2013-04-01 03:00:00,
2013-03-31 23:05:00,51.8,51.8,29.91,ENE,57,0.0,0.0,98,0.00,,,0.43,WUHU216WMR968SP,2013-04-01 03:05:00,
2013-03-31 23:10:00,51.6,51.8,29.91,ENE,57,0.0,0.0,98,0.00,,,0.43,WUHU216WMR968SP,2013-04-01 03:10:00,
2013-03-31 23:16:00,51.4,51.8,29.91,ENE,57,0.0,0.0,98,0.00,,,0.43,WUHU216WMR968SP,2013-04-01 03:16:00,
2013-03-31 23:21:00,50.9,51.8,29.94,ENE,57,0.0,0.0,98,0.00,,,0.43,WUHU216WMR968SP,2013-04-01 03:21:00,
2013-03-31 23:26:00,50.5,50.0,29.94,ENE,57,0.0,0.0,98,0.00,,,0.43,WUHU216WMR968SP,2013-04-01 03:26:00,
2013-03-31 23:31:00,50.4,50.0,29.94,ENE,57,0.0,0.0,98,0.00,,,0.43,WUHU216WMR968SP,2013-04-01 03:31:00,
2013-03-31 23:36:00,50.2,50.0,29.94,ENE,57,0.0,0.0,98,0.00,,,0.43,WUHU216WMR968SP,2013-04-01 03:36:00,
2013-03-31 23:41:00,49.8,50.0,29.94,ENE,57,0.0,0.0,98,0.00,,,0.43,WUHU216WMR968SP,2013-04-01 03:41:00,
2013-03-31 23:47:00,49.6,50.0,29.94,ENE,57,0.0,0.0,98,0.00,,,0.43,WUHU216WMR968SP,2013-04-01 03:47:00,
2013-03-31 23:52:00,49.5,50.0,29.94,East,83,0.0,0.0,98,0.00,,,0.43,WUHU216WMR968SP,2013-04-01 03:52:00,
2013-03-31 23:57:00,49.3,50.0,29.94,East,83,0.0,0.0,98,0.00,,,0.43,WUHU216WMR968SP,2013-04-01 03:57:00,